Edt Leon — 5BFB3 — position and weather

sailwx.info

Track history (hours):
 
Tides and Currents Weather Stations Pressure Air Temp Water Temp Dewpoint Dewpoint Depression Visibility Wind Speed Wind Dir Waves Ship Positions

Edt Leon

Last reported at 2017-Mar-22 15:33 UTC. Time now 2017-Mar-23 02:03 UTC.
Position N 34°32' E 032°54'.

Length 50 m; draft 3.2 m.

Type: Other ship. MMSI: 209343000.

Date/timePositionNaut miles runAvg speedWind from/ knotsBaromVisibWave heightAir tempDewpointWater temp
2017-Mar-22 15:33N 34°32' E 032°54'19 1.1
2017-Mar-21 22:29N 34°37' E 033°16'1718.5
2017-Mar-21 21:33N 34°31' E 032°56'  
2017-Mar-16 18:13N 34°32' E 032°51'1116.1
2017-Mar-16 17:33N 34°35' E 033°04'5 4.4
2017-Mar-16 16:31N 34°39' E 033°00'0 0.0
2017-Mar-16 15:31N 34°39' E 033°00'0 0.0
2017-Mar-16 14:31N 34°39' E 033°00'0 0.0
2017-Mar-16 13:28N 34°39' E 033°00'0 0.0
2017-Mar-16 12:31N 34°39' E 033°00'0 0.0
2017-Mar-16 11:31N 34°39' E 033°00'0 0.0
2017-Mar-16 10:28N 34°39' E 033°00'0 0.0
2017-Mar-16 09:31N 34°39' E 033°00'0 0.0
2017-Mar-16 08:31N 34°39' E 033°00'1 0.5
2017-Mar-16 07:32N 34°39' E 033°01'0 0.0
2017-Mar-16 06:32N 34°39' E 033°01'1 0.0
2017-Mar-15 18:33N 34°39' E 033°00'6 6.4
2017-Mar-15 17:34N 34°32' E 033°00'  
Track history (hours):
 
Tides and Currents Weather Stations Pressure Air Temp Water Temp Dewpoint Dewpoint Depression Visibility Wind Speed Wind Dir Waves Ship Positions

Edt Leon

Last reported at 2017-Mar-22 15:33 UTC. Time now 2017-Mar-23 02:03 UTC.
Position N 34°32' E 032°54'.

Length 50 m; draft 3.2 m.

Type: Other ship. MMSI: 209343000.

Date/timePositionNaut miles runAvg speedWind from/ knotsBaromVisibWave heightAir tempDewpointWater temp
2017-Mar-22 15:33N 34°32' E 032°54'19 1.1
2017-Mar-21 22:29N 34°37' E 033°16'1718.5
2017-Mar-21 21:33N 34°31' E 032°56'  
2017-Mar-16 18:13N 34°32' E 032°51'1116.1
2017-Mar-16 17:33N 34°35' E 033°04'5 4.4
2017-Mar-16 16:31N 34°39' E 033°00'0 0.0
2017-Mar-16 15:31N 34°39' E 033°00'0 0.0
2017-Mar-16 14:31N 34°39' E 033°00'0 0.0
2017-Mar-16 13:28N 34°39' E 033°00'0 0.0
2017-Mar-16 12:31N 34°39' E 033°00'0 0.0
2017-Mar-16 11:31N 34°39' E 033°00'0 0.0
2017-Mar-16 10:28N 34°39' E 033°00'0 0.0
2017-Mar-16 09:31N 34°39' E 033°00'0 0.0
2017-Mar-16 08:31N 34°39' E 033°00'1 0.5
2017-Mar-16 07:32N 34°39' E 033°01'0 0.0
2017-Mar-16 06:32N 34°39' E 033°01'1 0.0
2017-Mar-15 18:33N 34°39' E 033°00'6 6.4
2017-Mar-15 17:34N 34°32' E 033°00'  

Dump ship's entire track history